Time;durP1;ratioP1;P1;durP2;ratioP2;P2;SDS_P1;SDS_P2;PMS_P1;PMS_P2;Temp;Humidity;BMP_temperature;BMP_pressure;BME280_temperature;BME280_humidity;BME280_pressure;Samples;Min_cycle;Max_cycle;Signal;HPM_P1;HPM_P2
2022/05/24 00:00:54;;;;;;;;;13.75;12.00;;;;;;;;5140580;27;11431;-77
2022/05/24 00:03:20;;;;;;;;;12.75;12.00;;;;;;;;5140518;27;10041;-77
2022/05/24 00:05:45;;;;;;;;;13.00;13.00;;;;;;;;5139947;27;8780;-78
2022/05/24 00:08:11;;;;;;;;;13.00;13.00;;;;;;;;5139867;27;10411;-78
2022/05/24 00:10:38;;;;;;;;;12.25;11.00;;;;;;;;5139706;27;8910;-77
2022/05/24 00:13:04;;;;;;;;;13.50;13.25;;;;;;;;5140141;27;10422;-79
2022/05/24 00:15:30;;;;;;;;;11.25;11.25;;;;;;;;5139720;27;11462;-78
2022/05/24 00:18:08;;;;;;;;;13.00;11.50;;;;;;;;5140095;27;10583;-78
2022/05/24 00:20:38;;;;;;;;;14.75;13.25;;;;;;;;5139922;27;12198;-77
2022/05/24 00:23:03;;;;;;;;;14.00;12.25;;;;;;;;5140444;27;11444;-78
2022/05/24 00:25:30;;;;;;;;;13.00;10.75;;;;;;;;5139988;27;10511;-79
2022/05/24 00:27:55;;;;;;;;;13.00;13.00;;;;;;;;5140030;27;10423;-79
2022/05/24 00:30:21;;;;;;;;;12.00;11.50;;;;;;;;5139718;27;10471;-77
2022/05/24 00:32:46;;;;;;;;;13.50;12.75;;;;;;;;5140001;27;11543;-78
2022/05/24 00:35:11;;;;;;;;;12.75;12.75;;;;;;;;5139902;27;11676;-79
2022/05/24 00:37:38;;;;;;;;;13.25;12.75;;;;;;;;5139681;27;8901;-79
2022/05/24 00:40:06;;;;;;;;;13.25;12.25;;;;;;;;5139900;27;8788;-78
2022/05/24 00:42:31;;;;;;;;;12.75;12.00;;;;;;;;5139603;27;10613;-78
2022/05/24 00:45:03;;;;;;;;;13.50;12.50;;;;;;;;5138560;27;12533;-78
2022/05/24 00:47:28;;;;;;;;;12.00;12.00;;;;;;;;5139768;27;11995;-79
2022/05/24 00:49:56;;;;;;;;;19.75;13.25;;;;;;;;5139849;27;11360;-80
2022/05/24 00:52:27;;;;;;;;;12.75;10.25;;;;;;;;5139223;27;11506;-79
2022/05/24 00:54:52;;;;;;;;;11.00;11.00;;;;;;;;5138507;27;10802;-79
2022/05/24 00:57:34;;;;;;;;;12.25;11.75;;;;;;;;5139478;27;11320;-79
2022/05/24 01:00:02;;;;;;;;;11.00;11.00;;;;;;;;5139039;27;11611;-78
2022/05/24 01:02:28;;;;;;;;;16.75;12.25;;;;;;;;5139722;27;11478;-79
2022/05/24 01:04:53;;;;;;;;;13.75;11.75;;;;;;;;5139565;27;11438;-79
2022/05/24 01:07:19;;;;;;;;;12.00;12.00;;;;;;;;5139723;27;10558;-79
2022/05/24 01:09:51;;;;;;;;;12.25;12.25;;;;;;;;5139167;27;12004;-78
2022/05/24 01:12:37;;;;;;;;;13.00;12.00;;;;;;;;5139405;27;8772;-79
2022/05/24 01:15:04;;;;;;;;;13.75;12.25;;;;;;;;5139206;27;11461;-79
2022/05/24 01:17:30;;;;;;;;;12.00;11.00;;;;;;;;5139254;27;10474;-78
2022/05/24 01:19:55;;;;;;;;;13.50;11.25;;;;;;;;5139624;27;11357;-78
2022/05/24 01:22:44;;;;;;;;;12.75;12.50;;;;;;;;5138979;27;11598;-78
2022/05/24 01:25:16;;;;;;;;;12.00;10.00;;;;;;;;5139060;27;11760;-80
2022/05/24 01:27:41;;;;;;;;;14.00;12.00;;;;;;;;5139576;27;10550;-80
2022/05/24 01:30:08;;;;;;;;;11.00;11.00;;;;;;;;5138429;27;10620;-79
2022/05/24 01:38:03;;;;;;;;;11.25;10.75;;;;;;;;5141677;27;10453;-80
2022/05/24 01:40:29;;;;;;;;;12.00;10.25;;;;;;;;5143467;27;10575;-79
2022/05/24 01:42:54;;;;;;;;;10.50;10.25;;;;;;;;5142159;27;10582;-78
2022/05/24 01:45:26;;;;;;;;;11.50;8.25;;;;;;;;5142091;27;10604;-79
2022/05/24 01:47:55;;;;;;;;;11.50;11.25;;;;;;;;5142133;27;21391;-78
2022/05/24 01:50:22;;;;;;;;;12.25;11.00;;;;;;;;5142240;27;16636;-79
2022/05/24 01:52:50;;;;;;;;;10.25;9.25;;;;;;;;5142667;27;11484;-78
2022/05/24 01:55:19;;;;;;;;;12.00;9.75;;;;;;;;5141705;27;21464;-78
2022/05/24 01:57:47;;;;;;;;;9.75;9.75;;;;;;;;5142306;27;10721;-78
2022/05/24 02:00:14;;;;;;;;;10.25;10.25;;;;;;;;5140903;27;18480;-77
2022/05/24 02:02:40;;;;;;;;;9.00;9.00;;;;;;;;5142055;27;22250;-79
2022/05/24 02:05:05;;;;;;;;;14.25;10.50;;;;;;;;5141839;27;22271;-80
2022/05/24 02:07:32;;;;;;;;;10.00;10.00;;;;;;;;5141518;27;22682;-79
2022/05/24 02:09:57;;;;;;;;;8.75;6.50;;;;;;;;5142802;27;11457;-79
2022/05/24 02:12:28;;;;;;;;;12.25;9.50;;;;;;;;5141814;27;23644;-79
2022/05/24 02:14:57;;;;;;;;;10.25;9.25;;;;;;;;5142074;27;21562;-80
2022/05/24 02:17:24;;;;;;;;;12.25;10.00;;;;;;;;5140003;27;13090;-80
2022/05/24 02:19:54;;;;;;;;;10.75;10.00;;;;;;;;5141616;27;21445;-78
2022/05/24 02:22:24;;;;;;;;;11.00;11.00;;;;;;;;5142598;27;10743;-79
2022/05/24 02:24:57;;;;;;;;;12.25;10.25;;;;;;;;5142789;27;10697;-79
2022/05/24 02:27:22;;;;;;;;;11.75;10.00;;;;;;;;5142311;27;11478;-78
2022/05/24 02:29:48;;;;;;;;;11.25;9.75;;;;;;;;5142346;27;11881;-79
2022/05/24 02:32:13;;;;;;;;;12.75;12.25;;;;;;;;5141773;27;22507;-80
2022/05/24 02:34:38;;;;;;;;;16.00;12.00;;;;;;;;5141038;27;21373;-78
2022/05/24 02:37:04;;;;;;;;;11.50;11.00;;;;;;;;5139638;27;11598;-79
2022/05/24 02:39:29;;;;;;;;;10.25;9.25;;;;;;;;5140608;27;13347;-78
2022/05/24 02:41:56;;;;;;;;;10.00;10.00;;;;;;;;5141550;27;21581;-79
2022/05/24 02:44:22;;;;;;;;;6.00;6.00;;;;;;;;5140528;27;22147;-79
2022/05/24 02:46:47;;;;;;;;;10.00;9.25;;;;;;;;5140918;27;22404;-78
2022/05/24 02:49:13;;;;;;;;;13.00;11.00;;;;;;;;5141372;27;21627;-79
2022/05/24 02:51:38;;;;;;;;;10.25;9.00;;;;;;;;5141761;27;22507;-77
2022/05/24 02:54:05;;;;;;;;;12.75;11.00;;;;;;;;5141885;27;21649;-79
2022/05/24 02:56:30;;;;;;;;;11.00;11.00;;;;;;;;5141583;27;21440;-79
2022/05/24 02:58:56;;;;;;;;;12.50;10.00;;;;;;;;5141592;27;10981;-80
2022/05/24 03:01:23;;;;;;;;;12.50;10.25;;;;;;;;5141876;27;10382;-79
2022/05/24 03:03:49;;;;;;;;;10.75;10.00;;;;;;;;5141619;27;8769;-79
2022/05/24 03:06:15;;;;;;;;;11.00;11.00;;;;;;;;5141551;27;11510;-78
2022/05/24 03:11:25;;;;;;;;;10.00;8.00;;;;;;;;5140875;27;22176;-79
2022/05/24 03:16:35;;;;;;;;;12.25;9.75;;;;;;;;5140872;27;21512;-78
2022/05/24 03:19:00;;;;;;;;;10.00;10.00;;;;;;;;5140115;27;21745;-78
2022/05/24 03:21:25;;;;;;;;;11.00;10.00;;;;;;;;5140937;27;22598;-77
2022/05/24 03:23:51;;;;;;;;;12.50;11.25;;;;;;;;5139670;27;8856;-79
2022/05/24 03:26:16;;;;;;;;;14.50;10.25;;;;;;;;5141299;27;11688;-78
2022/05/24 03:28:42;;;;;;;;;9.75;9.00;;;;;;;;5141010;27;8826;-79
2022/05/24 03:31:08;;;;;;;;;9.50;8.50;;;;;;;;5140773;27;22678;-78
2022/05/24 03:33:34;;;;;;;;;11.75;11.25;;;;;;;;5140984;27;10415;-79
2022/05/24 03:35:59;;;;;;;;;7.75;7.75;;;;;;;;5140613;27;22474;-78
2022/05/24 03:38:24;;;;;;;;;9.75;9.00;;;;;;;;5140095;27;23367;-79
2022/05/24 03:40:52;;;;;;;;;12.00;10.50;;;;;;;;5140481;27;11293;-78
2022/05/24 03:43:18;;;;;;;;;12.50;11.75;;;;;;;;5138353;27;24778;-78
2022/05/24 03:45:44;;;;;;;;;11.00;11.00;;;;;;;;5139849;27;11023;-79
2022/05/24 03:48:09;;;;;;;;;11.50;11.50;;;;;;;;5140241;27;11355;-78
2022/05/24 03:50:34;;;;;;;;;9.25;8.75;;;;;;;;5140175;27;11468;-80
2022/05/24 03:53:00;;;;;;;;;11.00;11.00;;;;;;;;5139957;27;22264;-79
2022/05/24 03:55:25;;;;;;;;;11.00;9.00;;;;;;;;5138019;27;23184;-79
2022/05/24 03:58:01;;;;;;;;;11.50;9.25;;;;;;;;5140444;27;17587;-80
2022/05/24 04:00:35;;;;;;;;;11.00;9.75;;;;;;;;5140881;27;8821;-78
2022/05/24 04:03:01;;;;;;;;;10.00;9.00;;;;;;;;5140423;27;10709;-79
2022/05/24 04:05:27;;;;;;;;;10.25;9.75;;;;;;;;5140513;27;10801;-80
2022/05/24 04:07:52;;;;;;;;;15.50;10.00;;;;;;;;5140846;27;10800;-78
2022/05/24 04:10:19;;;;;;;;;12.25;10.00;;;;;;;;5139747;27;21697;-77
2022/05/24 04:12:45;;;;;;;;;10.75;9.75;;;;;;;;5138515;27;9831;-78
2022/05/24 04:15:10;;;;;;;;;11.00;9.00;;;;;;;;5137682;27;21794;-77
2022/05/24 04:17:36;;;;;;;;;13.50;10.50;;;;;;;;5139992;27;10292;-77
2022/05/24 04:20:02;;;;;;;;;8.00;5.00;;;;;;;;5138088;27;25069;-78
2022/05/24 04:22:27;;;;;;;;;9.25;8.00;;;;;;;;5138825;27;24238;-78
2022/05/24 04:24:52;;;;;;;;;10.50;9.25;;;;;;;;5140441;27;10481;-78
2022/05/24 04:27:17;;;;;;;;;9.50;8.00;;;;;;;;5139930;27;21692;-78
2022/05/24 04:29:43;;;;;;;;;8.00;8.00;;;;;;;;5140263;27;21670;-77
2022/05/24 04:32:09;;;;;;;;;8.50;8.00;;;;;;;;5139726;27;9386;-78
2022/05/24 04:34:35;;;;;;;;;9.25;7.00;;;;;;;;5139823;27;8807;-78
2022/05/24 04:37:00;;;;;;;;;13.75;10.25;;;;;;;;5139709;27;10276;-78
2022/05/24 04:39:26;;;;;;;;;11.00;8.50;;;;;;;;5139222;27;22244;-79
2022/05/24 04:44:35;;;;;;;;;8.00;8.00;;;;;;;;5139105;27;10351;-77
2022/05/24 04:47:10;;;;;;;;;8.50;7.50;;;;;;;;5139346;27;21326;-77
2022/05/24 04:49:36;;;;;;;;;8.00;8.00;;;;;;;;5139684;27;10800;-77
2022/05/24 04:52:02;;;;;;;;;9.25;8.50;;;;;;;;5140380;27;11310;-76
2022/05/24 04:54:27;;;;;;;;;8.00;8.00;;;;;;;;5139846;27;12767;-76
2022/05/24 04:56:53;;;;;;;;;7.00;7.00;;;;;;;;5140112;27;11299;-77
2022/05/24 04:59:18;;;;;;;;;9.00;9.00;;;;;;;;5139718;27;8801;-77
2022/05/24 05:01:46;;;;;;;;;9.00;8.00;;;;;;;;5121054;27;11068;-77
2022/05/24 05:04:12;;;;;;;;;11.00;8.00;;;;;;;;5139135;27;8812;-77
2022/05/24 05:06:37;;;;;;;;;9.75;7.00;;;;;;;;5139979;27;16479;-77
2022/05/24 05:09:03;;;;;;;;;8.00;8.00;;;;;;;;5142935;27;22570;-77
2022/05/24 05:11:31;;;;;;;;;5.50;5.00;;;;;;;;5143254;27;10352;-76
2022/05/24 05:13:56;;;;;;;;;6.50;6.50;;;;;;;;5143749;27;10407;-78
2022/05/24 05:16:21;;;;;;;;;8.50;8.50;;;;;;;;5143346;27;11538;-78
2022/05/24 05:18:50;;;;;;;;;7.50;7.50;;;;;;;;5143787;27;8784;-78
2022/05/24 05:21:15;;;;;;;;;9.50;8.25;;;;;;;;5143341;27;8764;-75
2022/05/24 05:23:41;;;;;;;;;9.75;9.00;;;;;;;;5143270;27;11811;-77
2022/05/24 05:26:07;;;;;;;;;7.75;7.75;;;;;;;;5143114;27;10796;-76
2022/05/24 05:28:32;;;;;;;;;9.75;8.50;;;;;;;;5143763;27;11284;-74
2022/05/24 05:33:43;;;;;;;;;9.50;8.25;;;;;;;;5142612;27;21493;-73
2022/05/24 05:36:09;;;;;;;;;10.00;8.75;;;;;;;;5142357;27;21700;-74
2022/05/24 05:38:34;;;;;;;;;10.75;10.50;;;;;;;;5141417;27;22044;-73
2022/05/24 05:40:59;;;;;;;;;9.75;8.50;;;;;;;;5141590;27;21409;-75
2022/05/24 05:43:25;;;;;;;;;8.75;7.75;;;;;;;;5141749;27;22492;-79
2022/05/24 05:45:54;;;;;;;;;11.75;9.00;;;;;;;;5142217;27;11581;-74
2022/05/24 05:48:20;;;;;;;;;9.75;9.00;;;;;;;;5136554;27;24010;-74
2022/05/24 05:50:47;;;;;;;;;13.25;9.50;;;;;;;;5139316;27;18516;-76
2022/05/24 05:53:14;;;;;;;;;8.75;8.75;;;;;;;;5138297;27;21478;-75
2022/05/24 05:55:41;;;;;;;;;13.25;10.75;;;;;;;;5140169;27;21554;-79
2022/05/24 05:58:06;;;;;;;;;11.75;11.75;;;;;;;;5141241;27;22327;-83
2022/05/24 06:00:32;;;;;;;;;15.25;14.00;;;;;;;;5141446;27;10967;-78
2022/05/24 06:02:57;;;;;;;;;12.00;10.25;;;;;;;;5140402;27;11363;-76
2022/05/24 06:05:23;;;;;;;;;14.00;10.75;;;;;;;;5140204;27;11427;-80
2022/05/24 06:07:48;;;;;;;;;17.75;17.75;;;;;;;;5140952;27;10348;-79
2022/05/24 06:10:14;;;;;;;;;19.50;14.75;;;;;;;;5141392;27;10390;-82
2022/05/24 06:12:39;;;;;;;;;10.50;10.50;;;;;;;;5141022;27;10499;-75
2022/05/24 06:15:04;;;;;;;;;11.00;10.25;;;;;;;;5140198;27;11378;-78
2022/05/24 06:17:30;;;;;;;;;10.25;10.25;;;;;;;;5140137;27;13006;-79
2022/05/24 06:19:58;;;;;;;;;11.25;10.00;;;;;;;;5140626;27;8862;-80
2022/05/24 06:22:23;;;;;;;;;12.50;9.75;;;;;;;;5141092;27;11872;-81
2022/05/24 06:24:49;;;;;;;;;10.50;8.50;;;;;;;;5140317;27;22751;-80
2022/05/24 06:27:14;;;;;;;;;9.75;9.00;;;;;;;;5141147;27;10965;-81
2022/05/24 06:29:39;;;;;;;;;10.00;7.75;;;;;;;;5140396;27;21372;-79
2022/05/24 06:32:05;;;;;;;;;6.75;6.50;;;;;;;;5139883;27;21384;-76
2022/05/24 06:34:30;;;;;;;;;5.50;5.25;;;;;;;;5139957;27;22560;-80
2022/05/24 06:36:56;;;;;;;;;16.00;13.00;;;;;;;;5139873;27;11362;-87
2022/05/24 06:39:21;;;;;;;;;8.00;8.00;;;;;;;;5139990;27;22917;-87
2022/05/24 06:41:47;;;;;;;;;6.00;6.00;;;;;;;;5140362;27;23367;-80
2022/05/24 06:44:12;;;;;;;;;6.00;4.75;;;;;;;;5140466;27;8780;-81
2022/05/24 06:46:38;;;;;;;;;10.00;6.25;;;;;;;;5141316;27;8864;-82
2022/05/24 06:49:04;;;;;;;;;7.50;7.50;;;;;;;;5139822;27;21573;-82
2022/05/24 06:51:29;;;;;;;;;7.00;7.00;;;;;;;;5139795;27;23859;-83
2022/05/24 06:53:55;;;;;;;;;9.50;7.75;;;;;;;;5139503;27;10678;-81
2022/05/24 06:56:20;;;;;;;;;14.25;12.00;;;;;;;;5141853;27;11856;-80
2022/05/24 06:58:45;;;;;;;;;10.00;9.75;;;;;;;;5140557;27;22212;-83
2022/05/24 07:03:55;;;;;;;;;2.75;2.75;;;;;;;;5138848;27;21510;-83
2022/05/24 07:06:21;;;;;;;;;4.25;4.25;;;;;;;;5139351;27;11290;-81
2022/05/24 07:08:47;;;;;;;;;9.00;7.75;;;;;;;;5139481;27;10271;-84
2022/05/24 07:11:13;;;;;;;;;6.25;6.25;;;;;;;;5138152;27;10626;-83
2022/05/24 07:13:42;;;;;;;;;4.75;4.75;;;;;;;;5140482;27;11380;-84
2022/05/24 07:16:08;;;;;;;;;6.00;6.00;;;;;;;;5139431;27;10635;-80
2022/05/24 07:18:33;;;;;;;;;3.50;3.25;;;;;;;;5139354;27;11293;-80
2022/05/24 07:20:59;;;;;;;;;5.00;3.75;;;;;;;;5139896;27;12103;-81
2022/05/24 07:23:24;;;;;;;;;8.00;6.00;;;;;;;;5140187;27;10452;-79
2022/05/24 07:25:50;;;;;;;;;10.25;6.00;;;;;;;;5139321;27;11772;-76
2022/05/24 07:28:19;;;;;;;;;7.25;5.25;;;;;;;;5139421;27;16234;-80
2022/05/24 07:30:46;;;;;;;;;8.00;8.00;;;;;;;;5139430;27;22965;-79
2022/05/24 07:33:12;;;;;;;;;5.00;5.00;;;;;;;;5139647;27;11635;-73
2022/05/24 07:35:38;;;;;;;;;6.75;6.75;;;;;;;;5137859;27;11293;-72
2022/05/24 07:38:07;;;;;;;;;6.00;6.00;;;;;;;;5138688;27;12457;-72
2022/05/24 07:46:03;;;;;;;;;6.50;5.00;;;;;;;;5135252;27;11342;-72
2022/05/24 07:48:30;;;;;;;;;5.00;5.00;;;;;;;;5138100;27;12306;-72
2022/05/24 07:50:55;;;;;;;;;6.00;5.00;;;;;;;;5138603;27;10004;-71
2022/05/24 07:53:20;;;;;;;;;6.00;6.00;;;;;;;;5138581;27;8800;-72
2022/05/24 07:55:46;;;;;;;;;5.00;4.00;;;;;;;;5138497;27;8796;-73
2022/05/24 07:58:12;;;;;;;;;5.50;5.00;;;;;;;;5138200;27;9208;-72
2022/05/24 08:00:37;;;;;;;;;6.50;6.25;;;;;;;;5138075;27;9462;-73
2022/05/24 08:03:05;;;;;;;;;7.25;6.25;;;;;;;;5136371;27;14078;-73
2022/05/24 08:05:33;;;;;;;;;7.25;5.25;;;;;;;;5138195;27;8839;-73
2022/05/24 08:07:59;;;;;;;;;8.00;6.25;;;;;;;;5138469;27;9946;-73
2022/05/24 08:10:24;;;;;;;;;4.50;4.50;;;;;;;;5138823;27;10255;-71
2022/05/24 08:12:49;;;;;;;;;7.75;4.50;;;;;;;;5138662;27;11482;-72
2022/05/24 08:15:15;;;;;;;;;1.25;1.25;;;;;;;;5136299;27;9239;-73
2022/05/24 08:17:40;;;;;;;;;5.00;5.00;;;;;;;;5139288;27;12646;-79
2022/05/24 08:20:09;;;;;;;;;5.00;4.00;;;;;;;;5138856;27;11445;-79
2022/05/24 08:22:35;;;;;;;;;5.75;4.50;;;;;;;;5137116;27;8812;-80
2022/05/24 08:25:00;;;;;;;;;5.00;5.00;;;;;;;;5139094;27;10379;-82
2022/05/24 08:27:26;;;;;;;;;6.67;5.00;;;;;;;;5139084;27;10259;-85
2022/05/24 08:29:51;;;;;;;;;6.00;5.00;;;;;;;;5138617;27;10066;-78
2022/05/24 08:32:17;;;;;;;;;5.00;5.00;;;;;;;;5138892;27;8898;-81
2022/05/24 08:34:42;;;;;;;;;5.00;5.00;;;;;;;;5139094;27;8799;-82
2022/05/24 08:37:07;;;;;;;;;8.33;6.00;;;;;;;;5138947;27;8808;-83
2022/05/24 08:39:33;;;;;;;;;5.67;5.00;;;;;;;;5139422;27;10483;-83
2022/05/24 08:41:58;;;;;;;;;7.00;7.00;;;;;;;;5137127;27;11635;-88
2022/05/24 08:50:02;;;;;;;;;5.75;4.75;;;;;;;;5140493;27;11346;-81
2022/05/24 08:52:40;;;;;;;;;5.50;5.00;;;;;;;;5140661;27;9671;-82
2022/05/24 08:55:06;;;;;;;;;4.00;4.00;;;;;;;;5139688;27;10533;-80
2022/05/24 08:57:50;;;;;;;;;6.00;6.00;;;;;;;;5140139;27;10452;-85
2022/05/24 09:00:17;;;;;;;;;5.25;5.25;;;;;;;;5139740;27;9302;-85
2022/05/24 09:02:45;;;;;;;;;6.75;5.50;;;;;;;;5138388;27;11633;-84
2022/05/24 09:05:43;;;;;;;;;4.25;4.25;;;;;;;;5139000;27;11373;-86
2022/05/24 09:08:25;;;;;;;;;3.75;2.75;;;;;;;;5100058;27;11555;-83
2022/05/24 09:10:59;;;;;;;;;4.75;4.00;;;;;;;;5138703;27;12260;-80
2022/05/24 09:13:43;;;;;;;;;3.00;3.00;;;;;;;;5139744;27;11840;-84
2022/05/24 09:16:13;;;;;;;;;5.75;4.75;;;;;;;;5140537;27;11082;-87
2022/05/24 09:18:57;;;;;;;;;4.25;4.25;;;;;;;;5139096;27;11806;-84
2022/05/24 09:21:29;;;;;;;;;5.25;4.00;;;;;;;;5140492;27;10897;-87
2022/05/24 09:24:13;;;;;;;;;3.25;3.25;;;;;;;;5138790;27;13440;-85
2022/05/24 09:26:57;;;;;;;;;6.25;6.25;;;;;;;;5139830;27;11925;-85
2022/05/24 09:29:22;;;;;;;;;6.00;6.00;;;;;;;;5137869;27;11112;-86
2022/05/24 09:31:49;;;;;;;;;19.50;18.25;;;;;;;;5139347;27;8830;-85
2022/05/24 09:34:17;;;;;;;;;13.67;13.67;;;;;;;;5139604;27;23160;-85
2022/05/24 09:36:51;;;;;;;;;7.00;7.00;;;;;;;;5138780;27;12008;-85
2022/05/24 09:39:52;;;;;;;;;6.50;6.50;;;;;;;;5139240;27;22323;-86
2022/05/24 09:42:23;;;;;;;;;9.00;9.00;;;;;;;;5055523;28;11635;-86
2022/05/24 09:44:59;;;;;;;;;9.67;9.67;;;;;;;;5120423;27;13453;-86
2022/05/24 09:47:37;;;;;;;;;6.00;6.00;;;;;;;;5140063;27;9020;-86
2022/05/24 09:50:16;;;;;;;;;8.67;7.33;;;;;;;;5139077;27;11612;-82
2022/05/24 09:52:42;;;;;;;;;6.33;5.33;;;;;;;;5140259;27;11622;-83
2022/05/24 09:55:07;;;;;;;;;7.67;6.00;;;;;;;;5141994;27;10617;-83
2022/05/24 09:57:33;;;;;;;;;6.67;6.67;;;;;;;;5142512;27;11267;-82
2022/05/24 10:00:12;;;;;;;;;7.00;7.00;;;;;;;;5142388;27;11777;-83
2022/05/24 10:02:39;;;;;;;;;9.67;9.00;;;;;;;;5142611;27;12074;-84
2022/05/24 10:05:25;;;;;;;;;8.00;6.67;;;;;;;;5142692;27;10948;-83
2022/05/24 10:08:00;;;;;;;;;9.00;8.00;;;;;;;;5142203;27;11951;-84
2022/05/24 10:10:30;;;;;;;;;7.33;7.33;;;;;;;;5142851;27;11939;-84
2022/05/24 10:12:55;;;;;;;;;8.00;7.00;;;;;;;;5142753;27;11371;-83
2022/05/24 10:15:23;;;;;;;;;8.00;8.00;;;;;;;;5142668;27;11273;-82
2022/05/24 10:17:55;;;;;;;;;11.75;10.25;;;;;;;;5142911;27;8854;-84
2022/05/24 10:20:28;;;;;;;;;12.00;10.25;;;;;;;;5142866;27;22272;-83
2022/05/24 10:23:08;;;;;;;;;10.67;9.67;;;;;;;;5140926;27;10494;-83
2022/05/24 10:25:55;;;;;;;;;13.75;13.75;;;;;;;;5142531;27;22113;-84
2022/05/24 10:28:32;;;;;;;;;11.25;11.25;;;;;;;;5139947;27;21923;-84
2022/05/24 10:31:16;;;;;;;;;9.67;9.67;;;;;;;;5143059;27;10630;-83
2022/05/24 10:39:25;;;;;;;;;13.25;12.00;;;;;;;;5142059;27;21525;-86
2022/05/24 10:42:16;;;;;;;;;9.00;9.00;;;;;;;;5139863;27;14884;-85
2022/05/24 10:44:44;;;;;;;;;9.25;8.50;;;;;;;;5140498;27;22688;-85
2022/05/24 10:47:30;;;;;;;;;9.50;9.50;;;;;;;;5140284;27;10717;-85
2022/05/24 10:50:01;;;;;;;;;12.00;11.25;;;;;;;;5141831;27;9591;-86
2022/05/24 10:52:44;;;;;;;;;12.25;10.75;;;;;;;;5140815;27;22534;-85
2022/05/24 10:55:15;;;;;;;;;13.50;13.50;;;;;;;;5139333;27;11824;-73
2022/05/24 10:57:43;;;;;;;;;14.25;13.00;;;;;;;;5138962;27;13312;-74
2022/05/24 11:00:15;;;;;;;;;10.25;10.00;;;;;;;;5141509;27;11457;-74
2022/05/24 11:02:59;;;;;;;;;11.00;10.00;;;;;;;;5140668;27;10242;-77
2022/05/24 11:05:34;;;;;;;;;10.50;10.50;;;;;;;;5140118;27;9561;-75
2022/05/24 11:08:09;;;;;;;;;13.00;9.00;;;;;;;;5137740;27;11745;-74
2022/05/24 11:10:36;;;;;;;;;10.75;9.00;;;;;;;;5134726;27;21514;-76
2022/05/24 11:13:03;;;;;;;;;11.50;10.75;;;;;;;;5139120;27;9442;-75
2022/05/24 11:15:34;;;;;;;;;11.50;11.00;;;;;;;;5135077;27;21696;-75
2022/05/24 11:18:09;;;;;;;;;10.50;10.50;;;;;;;;5139130;27;9476;-76
2022/05/24 11:20:37;;;;;;;;;10.50;10.25;;;;;;;;5136436;27;12139;-75
2022/05/24 11:23:06;;;;;;;;;12.75;11.00;;;;;;;;5139243;27;9424;-74
2022/05/24 11:25:53;;;;;;;;;22.25;19.00;;;;;;;;5134892;27;13660;-74
2022/05/24 11:28:18;;;;;;;;;13.50;11.75;;;;;;;;5136931;27;12620;-75
2022/05/24 11:30:44;;;;;;;;;14.50;13.50;;;;;;;;5138511;27;14282;-75
2022/05/24 11:33:11;;;;;;;;;16.75;13.75;;;;;;;;5137873;27;11408;-76
2022/05/24 11:35:39;;;;;;;;;9.50;8.75;;;;;;;;5138196;27;11688;-76
2022/05/24 11:38:35;;;;;;;;;14.50;11.50;;;;;;;;5138036;27;22324;-75
2022/05/24 11:41:12;;;;;;;;;15.25;12.50;;;;;;;;5094463;28;23296;-75
2022/05/24 11:43:46;;;;;;;;;13.00;13.00;;;;;;;;5094076;28;11987;-74
2022/05/24 11:46:30;;;;;;;;;17.50;14.25;;;;;;;;5092362;28;11485;-76
2022/05/24 11:48:57;;;;;;;;;10.75;9.50;;;;;;;;5093109;28;11455;-73
2022/05/24 11:51:32;;;;;;;;;11.00;10.00;;;;;;;;5112853;27;21670;-74
2022/05/24 11:53:58;;;;;;;;;9.33;9.33;;;;;;;;5136877;27;22756;-76
2022/05/24 11:56:26;;;;;;;;;10.00;10.00;;;;;;;;5137191;27;22609;-75
2022/05/24 11:58:56;;;;;;;;;12.00;12.00;;;;;;;;5135715;27;22333;-75
2022/05/24 12:01:27;;;;;;;;;7.00;7.00;;;;;;;;5139569;27;9332;-75
2022/05/24 12:10:01;;;;;;;;;12.00;10.00;;;;;;;;5137087;27;21331;-76
2022/05/24 12:12:31;;;;;;;;;10.00;9.00;;;;;;;;5139179;27;9355;-75
2022/05/24 12:15:09;;;;;;;;;11.75;11.00;;;;;;;;5137480;27;21483;-76
2022/05/24 12:17:34;;;;;;;;;15.00;12.00;;;;;;;;5136041;27;22618;-75
2022/05/24 12:19:59;;;;;;;;;10.00;10.00;;;;;;;;5138542;27;10339;-76
2022/05/24 12:22:32;;;;;;;;;11.75;11.75;;;;;;;;5138746;27;8772;-74
2022/05/24 12:25:03;;;;;;;;;9.00;9.00;;;;;;;;5133805;27;11607;-76
2022/05/24 12:27:29;;;;;;;;;12.33;11.67;;;;;;;;5138190;27;22344;-72
2022/05/24 12:29:54;;;;;;;;;12.00;11.33;;;;;;;;5138108;27;23410;-73
2022/05/24 12:32:21;;;;;;;;;9.50;9.50;;;;;;;;5139238;27;8788;-74
2022/05/24 12:34:47;;;;;;;;;13.75;13.50;;;;;;;;5139096;27;23502;-73
2022/05/24 12:37:15;;;;;;;;;12.33;12.33;;;;;;;;5139072;27;23407;-73
2022/05/24 12:39:40;;;;;;;;;11.33;11.33;;;;;;;;5138095;27;11444;-73
2022/05/24 12:42:07;;;;;;;;;17.00;13.33;;;;;;;;5138753;27;10023;-74
2022/05/24 12:44:45;;;;;;;;;11.33;10.00;;;;;;;;5138958;27;10498;-74
2022/05/24 12:47:10;;;;;;;;;12.00;11.00;;;;;;;;5138372;27;11628;-73
2022/05/24 12:49:50;;;;;;;;;16.00;11.67;;;;;;;;5139437;27;10325;-79
2022/05/24 12:52:24;;;;;;;;;13.00;11.33;;;;;;;;5138817;27;11675;-78
2022/05/24 12:54:51;;;;;;;;;15.00;11.00;;;;;;;;5138601;27;11484;-78
2022/05/24 12:57:22;;;;;;;;;13.00;10.00;;;;;;;;5139450;27;11696;-77
2022/05/24 12:59:51;;;;;;;;;11.75;10.50;;;;;;;;5138846;27;9336;-77
2022/05/24 13:02:23;;;;;;;;;10.00;10.00;;;;;;;;5138963;27;11664;-76
2022/05/24 13:04:48;;;;;;;;;13.33;11.00;;;;;;;;5136489;27;13783;-75
2022/05/24 13:07:37;;;;;;;;;21.00;20.00;;;;;;;;5138512;27;10321;-76
2022/05/24 13:10:06;;;;;;;;;17.00;17.00;;;;;;;;5068909;28;12581;-76
2022/05/24 13:12:31;;;;;;;;;13.33;13.00;;;;;;;;5074894;28;10440;-76
2022/05/24 13:15:02;;;;;;;;;13.00;13.00;;;;;;;;5074470;28;10540;-76
2022/05/24 13:17:29;;;;;;;;;18.75;16.00;;;;;;;;5075256;28;8797;-73
2022/05/24 13:19:59;;;;;;;;;16.75;15.50;;;;;;;;5074766;28;10465;-74
2022/05/24 13:22:39;;;;;;;;;14.33;13.33;;;;;;;;5073937;28;12030;-73
2022/05/24 13:25:09;;;;;;;;;12.00;12.00;;;;;;;;5074215;28;11762;-75
2022/05/24 13:27:49;;;;;;;;;13.50;13.00;;;;;;;;5075296;28;11544;-74
2022/05/24 13:35:46;;;;;;;;;20.00;16.25;;;;;;;;5078359;28;12454;-74
2022/05/24 13:38:12;;;;;;;;;10.33;10.33;;;;;;;;5078187;28;10603;-76
2022/05/24 13:40:57;;;;;;;;;10.33;10.33;;;;;;;;5077896;28;12178;-75
2022/05/24 13:43:37;;;;;;;;;11.33;11.33;;;;;;;;5077441;28;8796;-73
2022/05/24 13:46:06;;;;;;;;;12.00;11.00;;;;;;;;5080276;28;9206;-78
2022/05/24 13:48:38;;;;;;;;;12.67;12.33;;;;;;;;5133286;27;13461;-75
2022/05/24 13:51:04;;;;;;;;;11.33;11.33;;;;;;;;5141807;27;10430;-80
2022/05/24 13:53:36;;;;;;;;;13.00;11.67;;;;;;;;5142135;27;10565;-75
2022/05/24 13:56:04;;;;;;;;;12.00;11.00;;;;;;;;5141564;27;11908;-75
2022/05/24 13:58:34;;;;;;;;;14.00;12.00;;;;;;;;5141740;27;11512;-75
2022/05/24 14:01:02;;;;;;;;;12.00;10.33;;;;;;;;5141135;27;10253;-75
2022/05/24 14:03:40;;;;;;;;;10.33;10.00;;;;;;;;5141985;27;11720;-75
2022/05/24 14:06:13;;;;;;;;;13.67;11.00;;;;;;;;5141149;27;11619;-74
2022/05/24 14:08:40;;;;;;;;;12.00;12.00;;;;;;;;5141956;27;10433;-75
2022/05/24 14:11:07;;;;;;;;;10.33;9.67;;;;;;;;5141066;27;10423;-75
2022/05/24 14:13:32;;;;;;;;;10.33;8.00;;;;;;;;5140942;27;21743;-74
2022/05/24 14:15:58;;;;;;;;;10.67;10.67;;;;;;;;5141309;27;9298;-75
2022/05/24 14:18:24;;;;;;;;;14.25;14.25;;;;;;;;5140976;27;21443;-74
2022/05/24 14:20:50;;;;;;;;;14.00;11.00;;;;;;;;5140789;27;11717;-74
2022/05/24 14:23:18;;;;;;;;;12.67;10.67;;;;;;;;5140841;27;10515;-74
2022/05/24 14:25:43;;;;;;;;;10.00;10.00;;;;;;;;5141350;27;11511;-74
2022/05/24 14:28:08;;;;;;;;;13.33;13.33;;;;;;;;5141186;27;12018;-74
2022/05/24 14:30:35;;;;;;;;;13.00;11.00;;;;;;;;5141146;27;11586;-75
2022/05/24 14:33:00;;;;;;;;;14.67;11.67;;;;;;;;5139395;27;10778;-75
2022/05/24 14:35:27;;;;;;;;;12.00;11.33;;;;;;;;5140583;27;11452;-74
2022/05/24 14:37:53;;;;;;;;;14.67;13.00;;;;;;;;5140926;27;11567;-74
2022/05/24 14:40:18;;;;;;;;;13.00;12.33;;;;;;;;5140933;27;11379;-75
2022/05/24 14:42:45;;;;;;;;;13.33;11.33;;;;;;;;5139145;27;11967;-75
2022/05/24 14:45:11;;;;;;;;;13.00;13.00;;;;;;;;5139832;27;10006;-77
2022/05/24 14:47:36;;;;;;;;;17.67;17.00;;;;;;;;5140793;27;10423;-81
2022/05/24 14:50:01;;;;;;;;;12.33;11.67;;;;;;;;5140939;27;11783;-78
2022/05/24 14:52:28;;;;;;;;;14.67;14.33;;;;;;;;5141151;27;12551;-79
2022/05/24 14:54:54;;;;;;;;;18.67;16.00;;;;;;;;5140489;27;11632;-82
2022/05/24 14:57:19;;;;;;;;;13.33;13.33;;;;;;;;5137199;27;12073;-81
2022/05/24 14:59:47;;;;;;;;;14.00;12.67;;;;;;;;5141230;27;11668;-81
2022/05/24 15:02:14;;;;;;;;;12.67;12.33;;;;;;;;5141105;27;11451;-78
2022/05/24 15:04:39;;;;;;;;;12.33;12.33;;;;;;;;5137035;27;11507;-80
2022/05/24 18:13:26;;;;;;;;;16.50;15.50;;;;;;;;5118678;27;1449830;-90
2022/05/24 18:15:57;;;;;;;;;18.75;15.25;;;;;;;;5156835;27;23494;-83
2022/05/24 18:18:25;;;;;;;;;15.75;15.00;;;;;;;;5156394;27;12674;-82
2022/05/24 18:20:54;;;;;;;;;16.25;12.25;;;;;;;;5118336;27;13548;-79
2022/05/24 18:23:43;;;;;;;;;18.75;16.50;;;;;;;;5155059;27;11517;-76
2022/05/24 18:34:33;;;;;;;;;19.00;14.25;;;;;;;;5155849;27;10426;-78
2022/05/24 18:37:02;;;;;;;;;15.00;13.25;;;;;;;;5135941;27;13627;-80
2022/05/24 18:39:27;;;;;;;;;17.50;15.75;;;;;;;;5136706;27;9415;-81